Time,TemperatureF,DewpointF,PressureIn,WindDirection,WindDirectionDegrees,WindSpeedMPH,WindSpeedGustMPH,Humidity,HourlyPrecipIn,Conditions,Clouds,dailyrainin,SolarRadiationWatts/m^2,SoftwareType,DateUTC
2013-09-05 00:01:00,69.0,56.0,-100.00,SE,129,2.0,6.0,64,0.00,,,0.00,60.000000,,2013-09-05 00:01:00,
2013-09-05 00:11:00,65.0,56.0,-100.00,East,86,1.0,3.0,74,0.00,,,0.00,10.000000,,2013-09-05 00:11:00,
2013-09-05 00:43:00,65.0,56.0,-100.00,East,86,1.0,3.0,74,0.00,,,0.00,10.000000,,2013-09-05 00:43:00,
2013-09-05 00:52:00,65.0,56.0,-100.00,East,86,1.0,3.0,74,0.00,,,0.00,10.000000,,2013-09-05 00:52:00,
2013-09-05 01:01:00,65.0,56.0,-100.00,East,86,1.0,3.0,74,0.00,,,0.00,10.000000,,2013-09-05 01:01:00,
2013-09-05 01:11:00,61.0,57.0,-100.00,South,187,0.0,0.0,87,0.00,,,0.00,0.000000,,2013-09-05 01:11:00,
2013-09-05 01:42:00,61.0,57.0,-100.00,South,187,0.0,0.0,87,0.00,,,0.00,0.000000,,2013-09-05 01:42:00,
2013-09-05 01:52:00,61.0,57.0,-100.00,South,187,0.0,0.0,87,0.00,,,0.00,0.000000,,2013-09-05 01:52:00,
2013-09-05 02:02:00,61.0,57.0,-100.00,South,187,0.0,0.0,87,0.00,,,0.00,0.000000,,2013-09-05 02:02:00,
2013-09-05 02:11:00,59.0,57.0,-100.00,NW,306,1.0,2.0,94,0.00,,,0.00,0.000000,,2013-09-05 02:11:00,
2013-09-05 02:52:00,59.0,57.0,-100.00,NW,306,1.0,2.0,94,0.00,,,0.00,0.000000,,2013-09-05 02:52:00,
2013-09-05 03:02:00,59.0,57.0,-100.00,NW,306,1.0,2.0,94,0.00,,,0.00,0.000000,,2013-09-05 03:02:00,
2013-09-05 03:11:00,57.0,56.0,-100.00,WSW,237,0.0,2.0,97,0.00,,,0.00,0.000000,,2013-09-05 03:11:00,
2013-09-05 03:45:00,57.0,56.0,-100.00,WSW,237,0.0,2.0,97,0.00,,,0.00,0.000000,,2013-09-05 03:45:00,
2013-09-05 03:54:00,57.0,56.0,-100.00,WSW,237,0.0,2.0,97,0.00,,,0.00,0.000000,,2013-09-05 03:54:00,
2013-09-05 04:04:00,57.0,56.0,-100.00,WSW,237,0.0,2.0,97,0.00,,,0.00,0.000000,,2013-09-05 04:04:00,
2013-09-05 04:11:00,56.0,55.0,-100.00,WNW,300,0.0,0.0,97,0.00,,,0.00,0.000000,,2013-09-05 04:11:00,
2013-09-05 04:44:00,56.0,55.0,-100.00,WNW,300,0.0,0.0,97,0.00,,,0.00,0.000000,,2013-09-05 04:44:00,
2013-09-05 04:53:00,56.0,55.0,-100.00,WNW,300,0.0,0.0,97,0.00,,,0.00,0.000000,,2013-09-05 04:53:00,
2013-09-05 05:03:00,56.0,55.0,-100.00,WNW,300,0.0,0.0,97,0.00,,,0.00,0.000000,,2013-09-05 05:03:00,
2013-09-05 05:11:00,56.0,55.0,-100.00,West,265,0.0,3.0,98,0.00,,,0.00,0.000000,,2013-09-05 05:11:00,
2013-09-05 05:43:00,56.0,55.0,-100.00,West,265,0.0,3.0,98,0.00,,,0.00,0.000000,,2013-09-05 05:43:00,
2013-09-05 05:52:00,56.0,55.0,-100.00,West,265,0.0,3.0,98,0.00,,,0.00,0.000000,,2013-09-05 05:52:00,
2013-09-05 06:02:00,56.0,55.0,-100.00,West,265,0.0,3.0,98,0.00,,,0.00,0.000000,,2013-09-05 06:02:00,
2013-09-05 06:11:00,55.0,54.0,-100.00,SE,137,0.0,2.0,98,0.00,,,0.00,0.000000,,2013-09-05 06:11:00,
2013-09-05 06:42:00,55.0,54.0,-100.00,SE,137,0.0,2.0,98,0.00,,,0.00,0.000000,,2013-09-05 06:42:00,
2013-09-05 06:52:00,55.0,54.0,-100.00,SE,137,0.0,2.0,98,0.00,,,0.00,0.000000,,2013-09-05 06:52:00,
2013-09-05 07:02:00,55.0,54.0,-100.00,SE,137,0.0,2.0,98,0.00,,,0.00,0.000000,,2013-09-05 07:02:00,
2013-09-05 07:11:00,53.0,52.0,-100.00,WNW,290,1.0,2.0,98,0.00,,,0.00,0.000000,,2013-09-05 07:11:00,
2013-09-05 07:42:00,53.0,52.0,-100.00,WNW,290,1.0,2.0,98,0.00,,,0.00,0.000000,,2013-09-05 07:42:00,
2013-09-05 07:52:00,53.0,52.0,-100.00,WNW,290,1.0,2.0,98,0.00,,,0.00,0.000000,,2013-09-05 07:52:00,
2013-09-05 08:03:00,53.0,52.0,-100.00,WNW,290,1.0,2.0,98,0.00,,,0.00,0.000000,,2013-09-05 08:03:00,
2013-09-05 08:11:00,53.0,52.0,-100.00,SW,223,0.0,2.0,98,0.00,,,0.00,0.000000,,2013-09-05 08:11:00,
2013-09-05 08:42:00,53.0,52.0,-100.00,SW,223,0.0,2.0,98,0.00,,,0.00,0.000000,,2013-09-05 08:42:00,
2013-09-05 08:52:00,53.0,52.0,-100.00,SW,223,0.0,2.0,98,0.00,,,0.00,0.000000,,2013-09-05 08:52:00,
2013-09-05 09:03:00,53.0,52.0,-100.00,SW,223,0.0,2.0,98,0.00,,,0.00,0.000000,,2013-09-05 09:03:00,
2013-09-05 09:11:00,52.0,51.0,-100.00,SSE,162,0.0,0.0,98,0.00,,,0.00,0.000000,,2013-09-05 09:11:00,
2013-09-05 09:43:00,52.0,51.0,-100.00,SSE,162,0.0,0.0,98,0.00,,,0.00,0.000000,,2013-09-05 09:43:00,
2013-09-05 09:54:00,52.0,51.0,-100.00,SSE,162,0.0,0.0,98,0.00,,,0.00,0.000000,,2013-09-05 09:54:00,
2013-09-05 10:03:00,52.0,51.0,-100.00,SSE,162,0.0,0.0,98,0.00,,,0.00,0.000000,,2013-09-05 10:03:00,
2013-09-05 10:11:00,52.0,52.0,-100.00,SSW,209,0.0,1.0,99,0.00,,,-99.99,0.000000,,2013-09-05 10:11:00,
2013-09-05 10:43:00,52.0,52.0,-100.00,SSW,209,0.0,1.0,99,0.00,,,-99.99,0.000000,,2013-09-05 10:43:00,
2013-09-05 10:53:00,52.0,52.0,-100.00,SSW,209,0.0,1.0,99,0.00,,,-99.99,0.000000,,2013-09-05 10:53:00,
2013-09-05 11:03:00,52.0,52.0,-100.00,SSW,209,0.0,1.0,99,0.00,,,-99.99,0.000000,,2013-09-05 11:03:00,
2013-09-05 11:11:00,51.0,51.0,-100.00,SW,218,0.0,0.0,99,0.00,,,0.00,1.000000,,2013-09-05 11:11:00,
2013-09-05 11:43:00,51.0,51.0,-100.00,SW,218,0.0,0.0,99,0.00,,,0.00,1.000000,,2013-09-05 11:43:00,
2013-09-05 11:52:00,51.0,51.0,-100.00,SW,218,0.0,0.0,99,0.00,,,0.00,1.000000,,2013-09-05 11:52:00,
2013-09-05 12:01:00,51.0,51.0,-100.00,SW,218,0.0,0.0,99,0.00,,,0.00,1.000000,,2013-09-05 12:01:00,
2013-09-05 12:11:00,57.0,56.0,-100.00,WSW,247,1.0,2.0,98,0.00,,,0.00,93.000000,,2013-09-05 12:11:00,
2013-09-05 12:42:00,57.0,56.0,-100.00,WSW,247,1.0,2.0,98,0.00,,,0.00,93.000000,,2013-09-05 12:42:00,
2013-09-05 12:52:00,57.0,56.0,-100.00,WSW,247,1.0,2.0,98,0.00,,,0.00,93.000000,,2013-09-05 12:52:00,
2013-09-05 13:02:00,57.0,56.0,-100.00,WSW,247,1.0,2.0,98,0.00,,,0.00,93.000000,,2013-09-05 13:02:00,
2013-09-05 13:11:00,65.0,61.0,-100.00,SE,124,0.0,2.0,88,0.00,,,0.00,290.000000,,2013-09-05 13:11:00,
2013-09-05 13:42:00,65.0,61.0,-100.00,SE,124,0.0,2.0,88,0.00,,,0.00,290.000000,,2013-09-05 13:42:00,
2013-09-05 13:53:00,65.0,61.0,-100.00,SE,124,0.0,2.0,88,0.00,,,0.00,290.000000,,2013-09-05 13:53:00,
2013-09-05 14:02:00,65.0,61.0,-100.00,SE,124,0.0,2.0,88,0.00,,,0.00,290.000000,,2013-09-05 14:02:00,
2013-09-05 14:11:00,70.0,61.0,-100.00,SSE,147,3.0,5.0,73,0.00,,,-99.99,504.000000,,2013-09-05 14:11:00,
2013-09-05 14:52:00,70.0,61.0,-100.00,SSE,147,3.0,5.0,73,0.00,,,-99.99,504.000000,,2013-09-05 14:52:00,
2013-09-05 15:02:00,70.0,61.0,-100.00,SSE,147,3.0,5.0,73,0.00,,,-99.99,504.000000,,2013-09-05 15:02:00,
2013-09-05 15:11:00,74.0,61.0,-100.00,SSE,151,3.0,5.0,64,0.00,,,0.00,705.000000,,2013-09-05 15:11:00,
2013-09-05 15:54:00,74.0,61.0,-100.00,SSE,151,3.0,5.0,64,0.00,,,0.00,705.000000,,2013-09-05 15:54:00,
2013-09-05 16:03:00,74.0,61.0,-100.00,SSE,151,3.0,5.0,64,0.00,,,0.00,705.000000,,2013-09-05 16:03:00,
2013-09-05 16:11:00,73.0,58.0,-100.00,South,184,4.0,9.0,60,0.00,,,0.00,782.000000,,2013-09-05 16:11:00,
2013-09-05 16:43:00,73.0,58.0,-100.00,South,184,4.0,9.0,60,0.00,,,0.00,782.000000,,2013-09-05 16:43:00,
2013-09-05 16:54:00,73.0,58.0,-100.00,South,184,4.0,9.0,60,0.00,,,0.00,782.000000,,2013-09-05 16:54:00,
2013-09-05 17:03:00,73.0,58.0,-100.00,South,184,4.0,9.0,60,0.00,,,0.00,782.000000,,2013-09-05 17:03:00,
2013-09-05 17:11:00,75.0,59.0,-100.00,SE,136,3.0,9.0,58,0.00,,,0.00,932.000000,,2013-09-05 17:11:00,
2013-09-05 17:43:00,75.0,59.0,-100.00,SE,136,3.0,9.0,58,0.00,,,0.00,932.000000,,2013-09-05 17:43:00,
2013-09-05 17:52:00,75.0,59.0,-100.00,SE,136,3.0,9.0,58,0.00,,,0.00,932.000000,,2013-09-05 17:52:00,
2013-09-05 18:03:00,75.0,59.0,-100.00,SE,136,3.0,9.0,58,0.00,,,0.00,932.000000,,2013-09-05 18:03:00,
2013-09-05 18:11:00,78.0,58.0,-100.00,SSE,163,3.0,7.0,51,0.00,,,0.00,1006.000000,,2013-09-05 18:11:00,
2013-09-05 18:43:00,78.0,58.0,-100.00,SSE,163,3.0,7.0,51,0.00,,,0.00,1006.000000,,2013-09-05 18:43:00,
2013-09-05 18:52:00,78.0,58.0,-100.00,SSE,163,3.0,7.0,51,0.00,,,0.00,1006.000000,,2013-09-05 18:52:00,
2013-09-05 19:02:00,78.0,58.0,-100.00,SSE,163,3.0,7.0,51,0.00,,,0.00,1006.000000,,2013-09-05 19:02:00,
2013-09-05 19:11:00,79.0,61.0,-100.00,SE,141,3.0,7.0,55,0.00,,,0.00,982.000000,,2013-09-05 19:11:00,
2013-09-05 19:42:00,79.0,61.0,-100.00,SE,141,3.0,7.0,55,0.00,,,0.00,982.000000,,2013-09-05 19:42:00,
2013-09-05 19:52:00,79.0,61.0,-100.00,SE,141,3.0,7.0,55,0.00,,,0.00,982.000000,,2013-09-05 19:52:00,
2013-09-05 20:03:00,79.0,61.0,-100.00,SE,141,3.0,7.0,55,0.00,,,0.00,982.000000,,2013-09-05 20:03:00,
2013-09-05 20:11:00,79.0,60.0,-100.00,ESE,111,3.0,7.0,52,0.00,,,0.00,787.000000,,2013-09-05 20:11:00,
2013-09-05 20:43:00,79.0,60.0,-100.00,ESE,111,3.0,7.0,52,0.00,,,0.00,787.000000,,2013-09-05 20:43:00,
2013-09-05 20:52:00,79.0,60.0,-100.00,ESE,111,3.0,7.0,52,0.00,,,0.00,787.000000,,2013-09-05 20:52:00,
2013-09-05 21:02:00,79.0,60.0,-100.00,ESE,111,3.0,7.0,52,0.00,,,0.00,787.000000,,2013-09-05 21:02:00,
2013-09-05 22:11:00,72.0,58.0,-100.00,SE,142,2.0,6.0,61,0.00,,,0.00,141.000000,,2013-09-05 22:11:00,
2013-09-05 22:43:00,72.0,58.0,-100.00,SE,142,2.0,6.0,61,0.00,,,0.00,141.000000,,2013-09-05 22:43:00,
2013-09-05 22:53:00,72.0,58.0,-100.00,SE,142,2.0,6.0,61,0.00,,,0.00,141.000000,,2013-09-05 22:53:00,
2013-09-05 23:02:00,72.0,58.0,-100.00,SE,142,2.0,6.0,61,0.00,,,0.00,141.000000,,2013-09-05 23:02:00,
2013-09-05 23:11:00,69.0,56.0,-100.00,SE,134,2.0,5.0,63,0.00,,,0.00,33.000000,,2013-09-05 23:11:00,
2013-09-05 23:42:00,69.0,56.0,-100.00,SE,134,2.0,5.0,63,0.00,,,0.00,33.000000,,2013-09-05 23:42:00,
2013-09-05 23:53:00,69.0,56.0,-100.00,SE,134,2.0,5.0,63,0.00,,,0.00,33.000000,,2013-09-05 23:53:00,